sensor_id;sensor_type;location;lat;lon;timestamp;P1;durP1;ratioP1;P2;durP2;ratioP2
59856;SDS011;45733;52.668;6.860;2022-09-21T00:00:41;0.50;;;0.50;;
59856;SDS011;45733;52.668;6.860;2022-09-21T00:03:08;0.50;;;0.50;;
59856;SDS011;45733;52.668;6.860;2022-09-21T00:05:35;0.50;;;0.50;;
59856;SDS011;45733;52.668;6.860;2022-09-21T00:08:03;0.50;;;0.50;;
59856;SDS011;45733;52.668;6.860;2022-09-21T00:10:30;0.50;;;0.50;;
59856;SDS011;45733;52.668;6.860;2022-09-21T00:12:57;0.50;;;0.50;;
59856;SDS011;45733;52.668;6.860;2022-09-21T00:15:24;0.50;;;0.50;;
59856;SDS011;45733;52.668;6.860;2022-09-21T00:17:53;0.50;;;0.50;;
59856;SDS011;45733;52.668;6.860;2022-09-21T00:20:21;0.50;;;0.50;;
59856;SDS011;45733;52.668;6.860;2022-09-21T00:22:49;0.50;;;0.50;;
59856;SDS011;45733;52.668;6.860;2022-09-21T00:25:16;0.50;;;0.50;;
59856;SDS011;45733;52.668;6.860;2022-09-21T00:27:42;0.50;;;0.50;;
59856;SDS011;45733;52.668;6.860;2022-09-21T00:30:08;0.50;;;0.50;;
59856;SDS011;45733;52.668;6.860;2022-09-21T00:32:36;0.50;;;0.50;;
59856;SDS011;45733;52.668;6.860;2022-09-21T00:35:04;0.50;;;0.50;;
59856;SDS011;45733;52.668;6.860;2022-09-21T00:37:34;0.50;;;0.50;;
59856;SDS011;45733;52.668;6.860;2022-09-21T00:40:01;0.50;;;0.50;;
59856;SDS011;45733;52.668;6.860;2022-09-21T00:42:29;0.50;;;0.50;;
59856;SDS011;45733;52.668;6.860;2022-09-21T00:44:59;0.50;;;0.50;;
59856;SDS011;45733;52.668;6.860;2022-09-21T00:47:36;0.50;;;0.50;;
59856;SDS011;45733;52.668;6.860;2022-09-21T00:50:06;0.60;;;0.60;;
59856;SDS011;45733;52.668;6.860;2022-09-21T00:52:42;0.50;;;0.50;;
59856;SDS011;45733;52.668;6.860;2022-09-21T00:55:16;0.60;;;0.60;;
59856;SDS011;45733;52.668;6.860;2022-09-21T00:57:45;0.60;;;0.60;;
59856;SDS011;45733;52.668;6.860;2022-09-21T01:00:15;0.50;;;0.50;;
59856;SDS011;45733;52.668;6.860;2022-09-21T01:02:41;0.60;;;0.60;;
59856;SDS011;45733;52.668;6.860;2022-09-21T01:05:08;0.60;;;0.60;;
59856;SDS011;45733;52.668;6.860;2022-09-21T01:07:39;0.50;;;0.50;;
59856;SDS011;45733;52.668;6.860;2022-09-21T01:10:10;0.60;;;0.60;;
59856;SDS011;45733;52.668;6.860;2022-09-21T01:21:25;0.60;;;0.60;;
59856;SDS011;45733;52.668;6.860;2022-09-21T01:24:30;0.60;;;0.60;;
59856;SDS011;45733;52.668;6.860;2022-09-21T01:30:11;0.60;;;0.60;;
59856;SDS011;45733;52.668;6.860;2022-09-21T01:35:32;0.60;;;0.60;;
59856;SDS011;45733;52.668;6.860;2022-09-21T01:38:09;0.60;;;0.60;;
59856;SDS011;45733;52.668;6.860;2022-09-21T01:40:46;0.60;;;0.60;;
59856;SDS011;45733;52.668;6.860;2022-09-21T01:43:26;0.68;;;0.68;;
59856;SDS011;45733;52.668;6.860;2022-09-21T01:46:00;0.60;;;0.60;;
59856;SDS011;45733;52.668;6.860;2022-09-21T01:48:33;0.60;;;0.60;;
59856;SDS011;45733;52.668;6.860;2022-09-21T01:51:03;0.60;;;0.60;;
59856;SDS011;45733;52.668;6.860;2022-09-21T01:53:35;0.60;;;0.60;;
59856;SDS011;45733;52.668;6.860;2022-09-21T01:56:08;0.60;;;0.60;;
59856;SDS011;45733;52.668;6.860;2022-09-21T01:58:46;0.60;;;0.60;;
59856;SDS011;45733;52.668;6.860;2022-09-21T02:01:34;0.60;;;0.60;;
59856;SDS011;45733;52.668;6.860;2022-09-21T02:04:04;0.60;;;0.60;;
59856;SDS011;45733;52.668;6.860;2022-09-21T02:06:34;0.60;;;0.60;;
59856;SDS011;45733;52.668;6.860;2022-09-21T02:09:04;0.60;;;0.60;;
59856;SDS011;45733;52.668;6.860;2022-09-21T02:11:30;0.60;;;0.60;;
59856;SDS011;45733;52.668;6.860;2022-09-21T02:13:56;0.60;;;0.60;;
59856;SDS011;45733;52.668;6.860;2022-09-21T02:38:00;0.60;;;0.60;;
59856;SDS011;45733;52.668;6.860;2022-09-21T02:43:29;0.60;;;0.60;;
59856;SDS011;45733;52.668;6.860;2022-09-21T02:46:03;0.60;;;0.60;;
59856;SDS011;45733;52.668;6.860;2022-09-21T02:48:37;0.60;;;0.60;;
59856;SDS011;45733;52.668;6.860;2022-09-21T02:51:11;0.60;;;0.60;;
59856;SDS011;45733;52.668;6.860;2022-09-21T02:53:41;0.60;;;0.60;;
59856;SDS011;45733;52.668;6.860;2022-09-21T02:56:08;0.60;;;0.60;;
59856;SDS011;45733;52.668;6.860;2022-09-21T02:58:40;0.60;;;0.60;;
59856;SDS011;45733;52.668;6.860;2022-09-21T03:01:14;0.60;;;0.60;;
59856;SDS011;45733;52.668;6.860;2022-09-21T03:03:42;0.60;;;0.60;;
59856;SDS011;45733;52.668;6.860;2022-09-21T03:06:07;0.60;;;0.60;;
59856;SDS011;45733;52.668;6.860;2022-09-21T03:08:33;0.60;;;0.60;;
59856;SDS011;45733;52.668;6.860;2022-09-21T03:10:59;0.60;;;0.60;;
59856;SDS011;45733;52.668;6.860;2022-09-21T03:13:26;0.60;;;0.60;;
59856;SDS011;45733;52.668;6.860;2022-09-21T03:15:57;0.60;;;0.60;;
59856;SDS011;45733;52.668;6.860;2022-09-21T03:18:27;0.60;;;0.60;;
59856;SDS011;45733;52.668;6.860;2022-09-21T03:20:54;0.63;;;0.63;;
59856;SDS011;45733;52.668;6.860;2022-09-21T03:23:20;0.68;;;0.68;;
59856;SDS011;45733;52.668;6.860;2022-09-21T03:25:45;0.60;;;0.60;;
59856;SDS011;45733;52.668;6.860;2022-09-21T03:28:12;0.60;;;0.60;;
59856;SDS011;45733;52.668;6.860;2022-09-21T03:30:39;0.60;;;0.60;;
59856;SDS011;45733;52.668;6.860;2022-09-21T03:33:07;0.60;;;0.60;;
59856;SDS011;45733;52.668;6.860;2022-09-21T03:35:32;0.60;;;0.60;;
59856;SDS011;45733;52.668;6.860;2022-09-21T03:37:59;0.60;;;0.60;;
59856;SDS011;45733;52.668;6.860;2022-09-21T03:40:26;0.60;;;0.60;;
59856;SDS011;45733;52.668;6.860;2022-09-21T03:42:52;0.60;;;0.60;;
59856;SDS011;45733;52.668;6.860;2022-09-21T03:45:19;0.60;;;0.60;;
59856;SDS011;45733;52.668;6.860;2022-09-21T03:47:55;0.60;;;0.60;;
59856;SDS011;45733;52.668;6.860;2022-09-21T03:50:22;0.60;;;0.60;;
59856;SDS011;45733;52.668;6.860;2022-09-21T03:52:49;0.60;;;0.60;;
59856;SDS011;45733;52.668;6.860;2022-09-21T03:55:15;0.60;;;0.60;;
59856;SDS011;45733;52.668;6.860;2022-09-21T03:57:41;0.70;;;0.70;;
59856;SDS011;45733;52.668;6.860;2022-09-21T04:00:08;0.60;;;0.60;;
59856;SDS011;45733;52.668;6.860;2022-09-21T04:02:35;0.60;;;0.60;;
59856;SDS011;45733;52.668;6.860;2022-09-21T04:05:02;0.60;;;0.60;;
59856;SDS011;45733;52.668;6.860;2022-09-21T04:07:32;0.52;;;0.52;;
59856;SDS011;45733;52.668;6.860;2022-09-21T04:09:59;0.60;;;0.60;;
59856;SDS011;45733;52.668;6.860;2022-09-21T04:12:25;0.60;;;0.60;;
59856;SDS011;45733;52.668;6.860;2022-09-21T04:14:51;0.60;;;0.60;;
59856;SDS011;45733;52.668;6.860;2022-09-21T04:17:17;0.60;;;0.60;;
59856;SDS011;45733;52.668;6.860;2022-09-21T04:19:43;0.70;;;0.70;;
59856;SDS011;45733;52.668;6.860;2022-09-21T04:22:10;0.60;;;0.60;;
59856;SDS011;45733;52.668;6.860;2022-09-21T04:24:39;0.70;;;0.70;;
59856;SDS011;45733;52.668;6.860;2022-09-21T04:27:08;0.60;;;0.60;;
59856;SDS011;45733;52.668;6.860;2022-09-21T04:29:34;0.60;;;0.60;;
59856;SDS011;45733;52.668;6.860;2022-09-21T04:32:01;0.60;;;0.60;;
59856;SDS011;45733;52.668;6.860;2022-09-21T04:34:27;0.70;;;0.70;;
59856;SDS011;45733;52.668;6.860;2022-09-21T04:36:55;0.60;;;0.60;;
59856;SDS011;45733;52.668;6.860;2022-09-21T04:39:24;0.60;;;0.60;;
59856;SDS011;45733;52.668;6.860;2022-09-21T04:41:50;0.60;;;0.60;;
59856;SDS011;45733;52.668;6.860;2022-09-21T04:44:16;0.60;;;0.60;;
59856;SDS011;45733;52.668;6.860;2022-09-21T04:46:44;0.60;;;0.60;;
59856;SDS011;45733;52.668;6.860;2022-09-21T04:49:10;0.60;;;0.60;;
59856;SDS011;45733;52.668;6.860;2022-09-21T04:51:36;0.60;;;0.60;;
59856;SDS011;45733;52.668;6.860;2022-09-21T04:54:02;0.60;;;0.60;;
59856;SDS011;45733;52.668;6.860;2022-09-21T04:56:28;0.60;;;0.60;;
59856;SDS011;45733;52.668;6.860;2022-09-21T04:58:54;0.60;;;0.60;;
59856;SDS011;45733;52.668;6.860;2022-09-21T05:01:20;0.60;;;0.60;;
59856;SDS011;45733;52.668;6.860;2022-09-21T05:03:46;0.60;;;0.60;;
59856;SDS011;45733;52.668;6.860;2022-09-21T05:06:12;0.60;;;0.60;;
59856;SDS011;45733;52.668;6.860;2022-09-21T05:08:39;0.60;;;0.60;;
59856;SDS011;45733;52.668;6.860;2022-09-21T05:11:24;0.60;;;0.60;;
59856;SDS011;45733;52.668;6.860;2022-09-21T05:13:50;0.60;;;0.60;;
59856;SDS011;45733;52.668;6.860;2022-09-21T05:16:17;0.60;;;0.60;;
59856;SDS011;45733;52.668;6.860;2022-09-21T05:18:43;0.60;;;0.60;;
59856;SDS011;45733;52.668;6.860;2022-09-21T05:21:11;0.60;;;0.60;;
59856;SDS011;45733;52.668;6.860;2022-09-21T05:23:37;0.60;;;0.60;;
59856;SDS011;45733;52.668;6.860;2022-09-21T05:26:04;0.60;;;0.60;;
59856;SDS011;45733;52.668;6.860;2022-09-21T05:28:30;0.60;;;0.60;;
59856;SDS011;45733;52.668;6.860;2022-09-21T05:30:57;0.60;;;0.60;;
59856;SDS011;45733;52.668;6.860;2022-09-21T05:33:39;0.60;;;0.60;;
59856;SDS011;45733;52.668;6.860;2022-09-21T05:38:57;0.60;;;0.60;;
59856;SDS011;45733;52.668;6.860;2022-09-21T05:41:23;0.60;;;0.60;;
59856;SDS011;45733;52.668;6.860;2022-09-21T05:43:49;0.60;;;0.60;;
59856;SDS011;45733;52.668;6.860;2022-09-21T05:46:17;0.60;;;0.60;;
59856;SDS011;45733;52.668;6.860;2022-09-21T05:54:40;0.60;;;0.60;;
59856;SDS011;45733;52.668;6.860;2022-09-21T05:57:23;0.70;;;0.70;;
59856;SDS011;45733;52.668;6.860;2022-09-21T06:00:15;0.60;;;0.60;;
59856;SDS011;45733;52.668;6.860;2022-09-21T06:05:38;0.60;;;0.60;;
59856;SDS011;45733;52.668;6.860;2022-09-21T06:08:04;0.55;;;0.55;;
59856;SDS011;45733;52.668;6.860;2022-09-21T06:10:31;0.60;;;0.60;;
59856;SDS011;45733;52.668;6.860;2022-09-21T06:12:58;0.60;;;0.60;;
59856;SDS011;45733;52.668;6.860;2022-09-21T06:15:25;0.60;;;0.60;;
59856;SDS011;45733;52.668;6.860;2022-09-21T06:17:50;0.60;;;0.60;;
59856;SDS011;45733;52.668;6.860;2022-09-21T06:20:16;0.60;;;0.60;;
59856;SDS011;45733;52.668;6.860;2022-09-21T06:22:43;0.60;;;0.60;;
59856;SDS011;45733;52.668;6.860;2022-09-21T06:25:08;0.60;;;0.60;;
59856;SDS011;45733;52.668;6.860;2022-09-21T06:27:34;0.60;;;0.60;;
59856;SDS011;45733;52.668;6.860;2022-09-21T06:30:01;0.60;;;0.60;;
59856;SDS011;45733;52.668;6.860;2022-09-21T06:32:27;0.60;;;0.60;;
59856;SDS011;45733;52.668;6.860;2022-09-21T06:34:53;0.60;;;0.60;;
59856;SDS011;45733;52.668;6.860;2022-09-21T06:37:19;0.60;;;0.60;;
59856;SDS011;45733;52.668;6.860;2022-09-21T06:39:44;0.60;;;0.60;;
59856;SDS011;45733;52.668;6.860;2022-09-21T06:42:10;0.60;;;0.60;;
59856;SDS011;45733;52.668;6.860;2022-09-21T06:44:36;0.60;;;0.60;;
59856;SDS011;45733;52.668;6.860;2022-09-21T06:47:02;0.60;;;0.60;;
59856;SDS011;45733;52.668;6.860;2022-09-21T06:49:28;0.60;;;0.60;;
59856;SDS011;45733;52.668;6.860;2022-09-21T06:51:54;0.60;;;0.60;;
59856;SDS011;45733;52.668;6.860;2022-09-21T06:54:20;0.50;;;0.50;;
59856;SDS011;45733;52.668;6.860;2022-09-21T06:56:46;0.50;;;0.50;;
59856;SDS011;45733;52.668;6.860;2022-09-21T06:59:12;0.60;;;0.60;;
59856;SDS011;45733;52.668;6.860;2022-09-21T07:01:38;0.60;;;0.60;;
59856;SDS011;45733;52.668;6.860;2022-09-21T07:04:04;0.60;;;0.60;;
59856;SDS011;45733;52.668;6.860;2022-09-21T07:06:33;0.50;;;0.50;;
59856;SDS011;45733;52.668;6.860;2022-09-21T07:08:59;0.60;;;0.60;;
59856;SDS011;45733;52.668;6.860;2022-09-21T07:11:26;0.50;;;0.50;;
59856;SDS011;45733;52.668;6.860;2022-09-21T07:13:52;0.50;;;0.50;;
59856;SDS011;45733;52.668;6.860;2022-09-21T07:16:20;0.50;;;0.50;;
59856;SDS011;45733;52.668;6.860;2022-09-21T07:18:46;0.50;;;0.50;;
59856;SDS011;45733;52.668;6.860;2022-09-21T07:21:13;0.50;;;0.50;;
59856;SDS011;45733;52.668;6.860;2022-09-21T07:23:40;0.50;;;0.50;;
59856;SDS011;45733;52.668;6.860;2022-09-21T07:26:07;0.50;;;0.50;;
59856;SDS011;45733;52.668;6.860;2022-09-21T07:28:35;0.50;;;0.50;;
59856;SDS011;45733;52.668;6.860;2022-09-21T07:33:47;0.50;;;0.50;;
59856;SDS011;45733;52.668;6.860;2022-09-21T07:36:13;0.50;;;0.50;;
59856;SDS011;45733;52.668;6.860;2022-09-21T07:38:41;0.50;;;0.50;;
59856;SDS011;45733;52.668;6.860;2022-09-21T07:41:09;0.50;;;0.50;;
59856;SDS011;45733;52.668;6.860;2022-09-21T07:43:39;0.50;;;0.50;;
59856;SDS011;45733;52.668;6.860;2022-09-21T07:46:06;0.50;;;0.50;;
59856;SDS011;45733;52.668;6.860;2022-09-21T07:48:33;0.50;;;0.50;;
59856;SDS011;45733;52.668;6.860;2022-09-21T07:51:03;0.50;;;0.50;;
59856;SDS011;45733;52.668;6.860;2022-09-21T07:53:33;0.50;;;0.50;;
59856;SDS011;45733;52.668;6.860;2022-09-21T07:56:01;0.50;;;0.50;;
59856;SDS011;45733;52.668;6.860;2022-09-21T07:58:28;0.50;;;0.50;;
59856;SDS011;45733;52.668;6.860;2022-09-21T08:01:12;0.50;;;0.50;;
59856;SDS011;45733;52.668;6.860;2022-09-21T08:03:38;0.50;;;0.50;;
59856;SDS011;45733;52.668;6.860;2022-09-21T08:06:04;0.50;;;0.50;;
59856;SDS011;45733;52.668;6.860;2022-09-21T08:08:31;0.50;;;0.50;;
59856;SDS011;45733;52.668;6.860;2022-09-21T08:11:06;0.40;;;0.40;;
59856;SDS011;45733;52.668;6.860;2022-09-21T08:13:36;0.50;;;0.50;;
59856;SDS011;45733;52.668;6.860;2022-09-21T08:16:02;0.50;;;0.50;;
59856;SDS011;45733;52.668;6.860;2022-09-21T08:18:28;0.50;;;0.50;;
59856;SDS011;45733;52.668;6.860;2022-09-21T08:20:58;0.50;;;0.50;;
59856;SDS011;45733;52.668;6.860;2022-09-21T08:23:24;0.40;;;0.40;;
59856;SDS011;45733;52.668;6.860;2022-09-21T08:25:59;0.50;;;0.50;;
59856;SDS011;45733;52.668;6.860;2022-09-21T08:28:27;0.50;;;0.50;;
59856;SDS011;45733;52.668;6.860;2022-09-21T08:30:59;0.50;;;0.50;;
59856;SDS011;45733;52.668;6.860;2022-09-21T08:33:25;0.50;;;0.50;;
59856;SDS011;45733;52.668;6.860;2022-09-21T08:35:52;0.40;;;0.40;;
59856;SDS011;45733;52.668;6.860;2022-09-21T08:38:18;0.43;;;0.43;;
59856;SDS011;45733;52.668;6.860;2022-09-21T08:40:44;0.40;;;0.40;;
59856;SDS011;45733;52.668;6.860;2022-09-21T08:43:11;0.40;;;0.40;;
59856;SDS011;45733;52.668;6.860;2022-09-21T08:45:43;0.40;;;0.40;;
59856;SDS011;45733;52.668;6.860;2022-09-21T08:48:23;0.40;;;0.40;;
59856;SDS011;45733;52.668;6.860;2022-09-21T08:50:54;0.40;;;0.40;;
59856;SDS011;45733;52.668;6.860;2022-09-21T08:56:10;0.40;;;0.40;;
59856;SDS011;45733;52.668;6.860;2022-09-21T08:58:37;0.40;;;0.40;;
59856;SDS011;45733;52.668;6.860;2022-09-21T09:09:03;0.50;;;0.50;;
59856;SDS011;45733;52.668;6.860;2022-09-21T09:11:58;0.40;;;0.40;;
59856;SDS011;45733;52.668;6.860;2022-09-21T09:20:18;0.40;;;0.40;;
59856;SDS011;45733;52.668;6.860;2022-09-21T09:25:26;0.40;;;0.40;;
59856;SDS011;45733;52.668;6.860;2022-09-21T09:28:00;0.40;;;0.40;;
59856;SDS011;45733;52.668;6.860;2022-09-21T09:30:38;0.40;;;0.40;;
59856;SDS011;45733;52.668;6.860;2022-09-21T09:35:52;0.40;;;0.40;;
59856;SDS011;45733;52.668;6.860;2022-09-21T09:46:59;0.40;;;0.40;;
59856;SDS011;45733;52.668;6.860;2022-09-21T09:50:04;0.40;;;0.40;;
59856;SDS011;45733;52.668;6.860;2022-09-21T09:52:31;0.40;;;0.40;;
59856;SDS011;45733;52.668;6.860;2022-09-21T09:54:58;0.40;;;0.40;;
59856;SDS011;45733;52.668;6.860;2022-09-21T09:57:27;0.40;;;0.40;;
59856;SDS011;45733;52.668;6.860;2022-09-21T09:59:59;0.40;;;0.40;;
59856;SDS011;45733;52.668;6.860;2022-09-21T10:02:28;0.40;;;0.40;;
59856;SDS011;45733;52.668;6.860;2022-09-21T10:05:04;0.40;;;0.40;;
59856;SDS011;45733;52.668;6.860;2022-09-21T10:15:31;0.40;;;0.40;;
59856;SDS011;45733;52.668;6.860;2022-09-21T10:18:03;0.40;;;0.40;;
59856;SDS011;45733;52.668;6.860;2022-09-21T10:20:36;0.40;;;0.40;;
59856;SDS011;45733;52.668;6.860;2022-09-21T10:23:02;0.40;;;0.40;;
59856;SDS011;45733;52.668;6.860;2022-09-21T10:25:29;0.40;;;0.40;;
59856;SDS011;45733;52.668;6.860;2022-09-21T10:27:55;0.30;;;0.30;;
59856;SDS011;45733;52.668;6.860;2022-09-21T10:32:54;0.40;;;0.40;;
59856;SDS011;45733;52.668;6.860;2022-09-21T10:35:22;0.40;;;0.40;;
59856;SDS011;45733;52.668;6.860;2022-09-21T10:37:48;0.40;;;0.40;;
59856;SDS011;45733;52.668;6.860;2022-09-21T10:40:41;0.40;;;0.40;;
59856;SDS011;45733;52.668;6.860;2022-09-21T10:43:19;0.40;;;0.40;;
59856;SDS011;45733;52.668;6.860;2022-09-21T10:45:58;0.40;;;0.40;;
59856;SDS011;45733;52.668;6.860;2022-09-21T10:48:24;0.40;;;0.40;;
59856;SDS011;45733;52.668;6.860;2022-09-21T10:50:52;0.40;;;0.40;;
59856;SDS011;45733;52.668;6.860;2022-09-21T10:53:22;0.40;;;0.40;;
59856;SDS011;45733;52.668;6.860;2022-09-21T10:58:37;0.40;;;0.40;;
59856;SDS011;45733;52.668;6.860;2022-09-21T11:01:19;0.40;;;0.40;;
59856;SDS011;45733;52.668;6.860;2022-09-21T11:03:56;0.40;;;0.40;;
59856;SDS011;45733;52.668;6.860;2022-09-21T11:06:32;0.40;;;0.40;;
59856;SDS011;45733;52.668;6.860;2022-09-21T11:09:05;0.40;;;0.40;;
59856;SDS011;45733;52.668;6.860;2022-09-21T11:14:40;0.40;;;0.40;;
59856;SDS011;45733;52.668;6.860;2022-09-21T11:39:07;0.40;;;0.40;;
59856;SDS011;45733;52.668;6.860;2022-09-21T11:41:51;0.40;;;0.40;;
59856;SDS011;45733;52.668;6.860;2022-09-21T11:44:39;0.30;;;0.30;;
59856;SDS011;45733;52.668;6.860;2022-09-21T11:52:52;0.40;;;0.40;;
59856;SDS011;45733;52.668;6.860;2022-09-21T11:58:43;0.40;;;0.40;;
59856;SDS011;45733;52.668;6.860;2022-09-21T12:05:14;0.30;;;0.30;;
59856;SDS011;45733;52.668;6.860;2022-09-21T12:07:55;0.30;;;0.30;;
59856;SDS011;45733;52.668;6.860;2022-09-21T12:16:05;0.30;;;0.30;;
59856;SDS011;45733;52.668;6.860;2022-09-21T12:23:55;0.30;;;0.30;;
59856;SDS011;45733;52.668;6.860;2022-09-21T12:26:38;0.30;;;0.30;;
59856;SDS011;45733;52.668;6.860;2022-09-21T12:29:19;0.30;;;0.30;;
59856;SDS011;45733;52.668;6.860;2022-09-21T12:31:55;0.30;;;0.30;;
59856;SDS011;45733;52.668;6.860;2022-09-21T12:34:31;0.30;;;0.30;;
59856;SDS011;45733;52.668;6.860;2022-09-21T12:40:17;0.40;;;0.40;;
59856;SDS011;45733;52.668;6.860;2022-09-21T12:42:57;0.30;;;0.30;;
59856;SDS011;45733;52.668;6.860;2022-09-21T12:45:28;0.40;;;0.40;;
59856;SDS011;45733;52.668;6.860;2022-09-21T12:50:47;0.30;;;0.30;;
59856;SDS011;45733;52.668;6.860;2022-09-21T12:53:29;0.30;;;0.30;;
59856;SDS011;45733;52.668;6.860;2022-09-21T13:04:17;0.30;;;0.30;;
59856;SDS011;45733;52.668;6.860;2022-09-21T13:09:45;0.30;;;0.30;;
59856;SDS011;45733;52.668;6.860;2022-09-21T13:12:30;0.30;;;0.30;;
59856;SDS011;45733;52.668;6.860;2022-09-21T13:18:14;0.35;;;0.35;;
59856;SDS011;45733;52.668;6.860;2022-09-21T13:21:23;0.30;;;0.30;;
59856;SDS011;45733;52.668;6.860;2022-09-21T13:23:55;0.30;;;0.30;;
59856;SDS011;45733;52.668;6.860;2022-09-21T13:26:30;0.30;;;0.30;;
59856;SDS011;45733;52.668;6.860;2022-09-21T13:34:29;0.30;;;0.30;;
59856;SDS011;45733;52.668;6.860;2022-09-21T13:48:17;0.40;;;0.40;;
59856;SDS011;45733;52.668;6.860;2022-09-21T13:50:43;0.32;;;0.32;;
59856;SDS011;45733;52.668;6.860;2022-09-21T13:56:01;0.40;;;0.40;;
59856;SDS011;45733;52.668;6.860;2022-09-21T13:58:43;0.40;;;0.40;;
59856;SDS011;45733;52.668;6.860;2022-09-21T14:01:12;0.30;;;0.30;;
59856;SDS011;45733;52.668;6.860;2022-09-21T14:03:42;0.30;;;0.30;;
59856;SDS011;45733;52.668;6.860;2022-09-21T14:06:16;0.30;;;0.30;;
59856;SDS011;45733;52.668;6.860;2022-09-21T14:09:16;0.30;;;0.30;;
59856;SDS011;45733;52.668;6.860;2022-09-21T14:11:44;0.30;;;0.30;;
59856;SDS011;45733;52.668;6.860;2022-09-21T14:14:16;0.40;;;0.40;;
59856;SDS011;45733;52.668;6.860;2022-09-21T14:17:04;0.30;;;0.30;;
59856;SDS011;45733;52.668;6.860;2022-09-21T14:24:45;0.30;;;0.30;;
59856;SDS011;45733;52.668;6.860;2022-09-21T14:27:26;0.38;;;0.38;;
59856;SDS011;45733;52.668;6.860;2022-09-21T14:29:58;0.40;;;0.40;;
59856;SDS011;45733;52.668;6.860;2022-09-21T14:32:41;0.30;;;0.30;;
59856;SDS011;45733;52.668;6.860;2022-09-21T14:35:18;0.30;;;0.30;;
59856;SDS011;45733;52.668;6.860;2022-09-21T14:37:49;0.30;;;0.30;;
59856;SDS011;45733;52.668;6.860;2022-09-21T14:40:27;0.30;;;0.30;;
59856;SDS011;45733;52.668;6.860;2022-09-21T14:43:06;0.30;;;0.30;;
59856;SDS011;45733;52.668;6.860;2022-09-21T14:45:55;0.30;;;0.30;;
59856;SDS011;45733;52.668;6.860;2022-09-21T15:00:16;0.30;;;0.30;;
59856;SDS011;45733;52.668;6.860;2022-09-21T15:03:17;0.30;;;0.30;;
59856;SDS011;45733;52.668;6.860;2022-09-21T15:06:18;0.30;;;0.30;;
59856;SDS011;45733;52.668;6.860;2022-09-21T15:18:15;0.30;;;0.30;;
59856;SDS011;45733;52.668;6.860;2022-09-21T15:20:58;0.30;;;0.30;;
59856;SDS011;45733;52.668;6.860;2022-09-21T15:23:36;0.30;;;0.30;;
59856;SDS011;45733;52.668;6.860;2022-09-21T15:26:08;0.30;;;0.30;;
59856;SDS011;45733;52.668;6.860;2022-09-21T15:28:43;0.40;;;0.40;;
59856;SDS011;45733;52.668;6.860;2022-09-21T15:31:13;0.30;;;0.30;;
59856;SDS011;45733;52.668;6.860;2022-09-21T15:33:39;0.30;;;0.30;;
59856;SDS011;45733;52.668;6.860;2022-09-21T15:36:10;0.40;;;0.40;;
59856;SDS011;45733;52.668;6.860;2022-09-21T15:38:38;0.30;;;0.30;;
59856;SDS011;45733;52.668;6.860;2022-09-21T15:41:04;0.30;;;0.30;;
59856;SDS011;45733;52.668;6.860;2022-09-21T15:43:31;0.40;;;0.40;;
59856;SDS011;45733;52.668;6.860;2022-09-21T15:48:29;0.40;;;0.40;;
59856;SDS011;45733;52.668;6.860;2022-09-21T15:53:48;0.30;;;0.30;;
59856;SDS011;45733;52.668;6.860;2022-09-21T15:56:18;0.40;;;0.40;;
59856;SDS011;45733;52.668;6.860;2022-09-21T15:58:47;0.35;;;0.35;;
59856;SDS011;45733;52.668;6.860;2022-09-21T16:01:17;0.35;;;0.35;;
59856;SDS011;45733;52.668;6.860;2022-09-21T16:03:47;0.35;;;0.35;;
59856;SDS011;45733;52.668;6.860;2022-09-21T16:06:26;0.40;;;0.40;;
59856;SDS011;45733;52.668;6.860;2022-09-21T16:11:45;0.35;;;0.35;;
59856;SDS011;45733;52.668;6.860;2022-09-21T16:14:11;0.40;;;0.40;;
59856;SDS011;45733;52.668;6.860;2022-09-21T16:17:06;0.30;;;0.30;;
59856;SDS011;45733;52.668;6.860;2022-09-21T16:25:40;0.30;;;0.30;;
59856;SDS011;45733;52.668;6.860;2022-09-21T16:28:09;0.40;;;0.40;;
59856;SDS011;45733;52.668;6.860;2022-09-21T16:30:54;0.40;;;0.40;;
59856;SDS011;45733;52.668;6.860;2022-09-21T16:33:38;0.40;;;0.40;;
59856;SDS011;45733;52.668;6.860;2022-09-21T16:38:56;0.40;;;0.40;;
59856;SDS011;45733;52.668;6.860;2022-09-21T16:41:31;0.38;;;0.38;;
59856;SDS011;45733;52.668;6.860;2022-09-21T16:43:59;0.40;;;0.40;;
59856;SDS011;45733;52.668;6.860;2022-09-21T16:46:27;0.40;;;0.40;;
59856;SDS011;45733;52.668;6.860;2022-09-21T16:48:53;0.30;;;0.30;;
59856;SDS011;45733;52.668;6.860;2022-09-21T16:51:19;0.30;;;0.30;;
59856;SDS011;45733;52.668;6.860;2022-09-21T16:53:49;0.40;;;0.40;;
59856;SDS011;45733;52.668;6.860;2022-09-21T16:56:15;0.40;;;0.40;;
59856;SDS011;45733;52.668;6.860;2022-09-21T16:58:42;0.35;;;0.35;;
59856;SDS011;45733;52.668;6.860;2022-09-21T17:01:10;0.40;;;0.40;;
59856;SDS011;45733;52.668;6.860;2022-09-21T17:03:38;0.35;;;0.35;;
59856;SDS011;45733;52.668;6.860;2022-09-21T17:06:10;0.30;;;0.30;;
59856;SDS011;45733;52.668;6.860;2022-09-21T17:08:43;0.40;;;0.40;;
59856;SDS011;45733;52.668;6.860;2022-09-21T17:11:15;0.40;;;0.40;;
59856;SDS011;45733;52.668;6.860;2022-09-21T17:13:47;0.40;;;0.40;;
59856;SDS011;45733;52.668;6.860;2022-09-21T17:16:14;0.40;;;0.40;;
59856;SDS011;45733;52.668;6.860;2022-09-21T17:18:45;0.40;;;0.40;;
59856;SDS011;45733;52.668;6.860;2022-09-21T17:21:13;0.40;;;0.40;;
59856;SDS011;45733;52.668;6.860;2022-09-21T17:23:39;0.40;;;0.40;;
59856;SDS011;45733;52.668;6.860;2022-09-21T17:26:13;0.40;;;0.40;;
59856;SDS011;45733;52.668;6.860;2022-09-21T17:28:41;0.40;;;0.40;;
59856;SDS011;45733;52.668;6.860;2022-09-21T17:31:12;0.40;;;0.40;;
59856;SDS011;45733;52.668;6.860;2022-09-21T17:33:40;0.40;;;0.40;;
59856;SDS011;45733;52.668;6.860;2022-09-21T17:36:13;0.35;;;0.35;;
59856;SDS011;45733;52.668;6.860;2022-09-21T17:38:40;0.40;;;0.40;;
59856;SDS011;45733;52.668;6.860;2022-09-21T17:41:12;0.40;;;0.40;;
59856;SDS011;45733;52.668;6.860;2022-09-21T17:44:14;0.40;;;0.40;;
59856;SDS011;45733;52.668;6.860;2022-09-21T17:49:36;0.40;;;0.40;;
59856;SDS011;45733;52.668;6.860;2022-09-21T17:52:02;0.40;;;0.40;;
59856;SDS011;45733;52.668;6.860;2022-09-21T17:54:58;0.40;;;0.40;;
59856;SDS011;45733;52.668;6.860;2022-09-21T17:57:29;0.40;;;0.40;;
59856;SDS011;45733;52.668;6.860;2022-09-21T18:02:48;0.40;;;0.40;;
59856;SDS011;45733;52.668;6.860;2022-09-21T18:05:25;0.40;;;0.40;;
59856;SDS011;45733;52.668;6.860;2022-09-21T18:07:52;0.40;;;0.40;;
59856;SDS011;45733;52.668;6.860;2022-09-21T18:10:19;0.40;;;0.40;;
59856;SDS011;45733;52.668;6.860;2022-09-21T18:15:38;0.40;;;0.40;;
59856;SDS011;45733;52.668;6.860;2022-09-21T18:21:17;0.40;;;0.40;;
59856;SDS011;45733;52.668;6.860;2022-09-21T18:26:37;0.47;;;0.47;;
59856;SDS011;45733;52.668;6.860;2022-09-21T18:29:04;0.50;;;0.50;;
59856;SDS011;45733;52.668;6.860;2022-09-21T18:52:33;0.50;;;0.50;;
59856;SDS011;45733;52.668;6.860;2022-09-21T18:55:21;0.50;;;0.50;;
59856;SDS011;45733;52.668;6.860;2022-09-21T18:57:53;0.40;;;0.40;;
59856;SDS011;45733;52.668;6.860;2022-09-21T19:00:19;0.50;;;0.50;;
59856;SDS011;45733;52.668;6.860;2022-09-21T19:02:46;0.50;;;0.50;;
59856;SDS011;45733;52.668;6.860;2022-09-21T19:05:12;0.50;;;0.50;;
59856;SDS011;45733;52.668;6.860;2022-09-21T19:07:51;0.50;;;0.50;;
59856;SDS011;45733;52.668;6.860;2022-09-21T19:10:33;0.50;;;0.50;;
59856;SDS011;45733;52.668;6.860;2022-09-21T19:15:47;0.40;;;0.40;;
59856;SDS011;45733;52.668;6.860;2022-09-21T19:18:24;0.40;;;0.40;;
59856;SDS011;45733;52.668;6.860;2022-09-21T19:29:40;0.60;;;0.60;;
59856;SDS011;45733;52.668;6.860;2022-09-21T19:31:39;0.50;;;0.50;;
59856;SDS011;45733;52.668;6.860;2022-09-21T19:34:15;0.50;;;0.50;;
59856;SDS011;45733;52.668;6.860;2022-09-21T19:36:42;0.50;;;0.50;;
59856;SDS011;45733;52.668;6.860;2022-09-21T19:39:09;0.50;;;0.50;;
59856;SDS011;45733;52.668;6.860;2022-09-21T19:47:39;0.50;;;0.50;;
59856;SDS011;45733;52.668;6.860;2022-09-21T19:50:16;0.50;;;0.50;;
59856;SDS011;45733;52.668;6.860;2022-09-21T19:52:44;0.40;;;0.40;;